createdAt,value
2019-02-27T00:00:29.072Z,29.87
2019-02-27T00:02:57.935Z,28.10
2019-02-27T00:05:29.797Z,30.93
2019-02-27T00:07:58.500Z,30.53
2019-02-27T00:10:27.151Z,28.73
2019-02-27T00:12:55.838Z,31.27
2019-02-27T00:15:24.530Z,28.73
2019-02-27T00:17:53.258Z,30.80
2019-02-27T00:20:22.013Z,29.57
2019-02-27T00:22:51.567Z,33.13
2019-02-27T00:25:20.483Z,29.67
2019-02-27T00:27:49.919Z,32.10
2019-02-27T00:30:18.626Z,34.57
2019-02-27T00:32:50.926Z,26.97
2019-02-27T00:35:17.642Z,28.93
2019-02-27T00:37:46.359Z,28.30
2019-02-27T00:40:15.124Z,29.90
2019-02-27T00:42:45.992Z,27.47
2019-02-27T00:45:14.717Z,31.97
2019-02-27T00:47:43.371Z,34.97
2019-02-27T00:50:12.098Z,35.23
2019-02-27T00:52:40.790Z,32.60
2019-02-27T00:55:10.078Z,32.10
2019-02-27T00:57:38.817Z,29.77
2019-02-27T01:00:14.282Z,34.37
2019-02-27T01:02:42.938Z,31.03
2019-02-27T01:05:11.698Z,29.53
2019-02-27T01:07:40.442Z,29.23
2019-02-27T01:10:12.995Z,24.63
2019-02-27T01:12:41.892Z,30.63
2019-02-27T01:15:14.267Z,31.83
2019-02-27T01:17:43.283Z,36.73
2019-02-27T01:20:18.304Z,32.33
2019-02-27T01:22:47.022Z,37.27
2019-02-27T01:25:15.989Z,32.17
2019-02-27T01:27:44.578Z,30.57
2019-02-27T01:30:17.429Z,32.70
2019-02-27T01:32:46.124Z,35.53
2019-02-27T01:35:18.118Z,49.77
2019-02-27T01:37:45.498Z,51.77
2019-02-27T01:40:17.931Z,47.83
2019-02-27T01:42:45.613Z,44.40
2019-02-27T01:45:20.825Z,39.20
2019-02-27T01:47:46.529Z,52.33
2019-02-27T01:50:32.551Z,50.63
2019-02-27T01:53:01.278Z,52.87
2019-02-27T01:55:29.940Z,49.90
2019-02-27T01:57:58.551Z,50.30
2019-02-27T02:00:27.255Z,36.50
2019-02-27T02:02:55.918Z,37.77
2019-02-27T02:05:27.201Z,34.70
2019-02-27T02:07:56.117Z,35.47
2019-02-27T02:10:28.045Z,35.13
2019-02-27T02:12:58.589Z,36.33
2019-02-27T02:15:36.181Z,33.20
2019-02-27T02:18:22.922Z,39.33
2019-02-27T02:21:09.634Z,35.07
2019-02-27T02:23:52.918Z,30.67
2019-02-27T02:26:43.109Z,32.40
2019-02-27T02:29:21.025Z,35.17
2019-02-27T02:32:01.998Z,33.73
2019-02-27T02:34:40.094Z,36.97
2019-02-27T02:37:30.306Z,42.07
2019-02-27T02:40:16.616Z,42.20
2019-02-27T02:43:10.694Z,46.97
2019-02-27T02:46:08.650Z,45.97
2019-02-27T02:48:42.677Z,41.00
2019-02-27T02:51:41.811Z,41.17
2019-02-27T02:54:16.433Z,32.67
2019-02-27T02:56:50.625Z,43.40
2019-02-27T02:59:59.421Z,40.73
2019-02-27T03:02:43.773Z,38.70
2019-02-27T03:05:31.999Z,45.50
2019-02-27T03:08:06.899Z,37.90
2019-02-27T03:10:43.072Z,47.87
2019-02-27T03:13:23.841Z,37.57
2019-02-27T03:16:04.103Z,44.57
2019-02-27T03:18:40.106Z,33.93
2019-02-27T03:21:28.560Z,34.57
2019-02-27T03:24:20.831Z,38.57
2019-02-27T03:27:04.018Z,39.40
2019-02-27T03:29:53.510Z,41.07
2019-02-27T03:32:48.222Z,34.47
2019-02-27T03:35:42.060Z,35.27
2019-02-27T03:38:39.148Z,37.23
2019-02-27T03:41:28.735Z,30.50
2019-02-27T03:44:09.011Z,37.57
2019-02-27T03:47:06.956Z,34.93
2019-02-27T03:49:41.226Z,35.23
2019-02-27T03:52:12.873Z,38.70
2019-02-27T03:55:05.137Z,32.40
2019-02-27T03:57:55.946Z,34.83
2019-02-27T04:00:27.783Z,34.10
2019-02-27T04:02:59.438Z,34.17
2019-02-27T04:05:46.260Z,32.27
2019-02-27T04:08:44.793Z,34.33
2019-02-27T04:11:11.118Z,39.70
2019-02-27T04:13:39.931Z,37.77
2019-02-27T04:16:08.587Z,37.67
2019-02-27T04:18:36.113Z,45.43
2019-02-27T04:21:04.761Z,38.70
2019-02-27T04:23:33.336Z,44.43
2019-02-27T04:26:05.354Z,50.20
2019-02-27T04:28:32.234Z,48.07
2019-02-27T04:31:00.853Z,41.50
2019-02-27T04:33:29.599Z,48.60
2019-02-27T04:35:58.142Z,44.63
2019-02-27T04:38:27.671Z,50.03
2019-02-27T04:40:56.882Z,52.57
2019-02-27T04:43:25.507Z,56.47
2019-02-27T04:45:54.150Z,53.10
2019-02-27T04:48:22.711Z,75.20
2019-02-27T04:50:51.411Z,79.23
2019-02-27T04:53:20.049Z,67.70
2019-02-27T04:55:50.567Z,75.67
2019-02-27T04:58:19.121Z,63.17
2019-02-27T05:00:52.087Z,47.40
2019-02-27T05:03:20.708Z,55.60
2019-02-27T05:05:49.404Z,58.47
2019-02-27T05:08:17.978Z,63.83
2019-02-27T05:10:46.615Z,54.90
2019-02-27T05:13:15.266Z,65.73
2019-02-27T05:15:43.899Z,58.07
2019-02-27T05:18:12.456Z,57.57
2019-02-27T05:20:45.059Z,55.00
2019-02-27T05:23:11.283Z,47.40
2019-02-27T05:25:39.845Z,45.57
2019-02-27T05:28:08.551Z,49.73
2019-02-27T05:30:37.125Z,54.30
2019-02-27T05:33:05.819Z,57.10
2019-02-27T05:35:34.538Z,43.60
2019-02-27T05:38:03.184Z,49.40
2019-02-27T05:40:31.900Z,47.20
2019-02-27T05:43:00.623Z,46.13
2019-02-27T05:45:31.104Z,48.50
2019-02-27T05:47:59.552Z,45.30
2019-02-27T05:50:28.210Z,52.23
2019-02-27T05:52:58.353Z,57.93
2019-02-27T05:55:27.077Z,53.37
2019-02-27T05:57:55.771Z,59.07
2019-02-27T06:00:24.470Z,64.30
2019-02-27T06:02:53.126Z,64.40
2019-02-27T06:05:25.799Z,60.97
2019-02-27T06:07:54.395Z,64.77
2019-02-27T06:10:23.687Z,57.27
2019-02-27T06:12:52.433Z,62.20
2019-02-27T06:15:21.154Z,71.50
2019-02-27T06:17:49.956Z,64.53
2019-02-27T06:20:18.702Z,68.13
2019-02-27T06:22:47.416Z,61.00
2019-02-27T06:25:21.630Z,74.13
2019-02-27T06:27:48.440Z,78.90
2019-02-27T06:30:18.994Z,78.60
2019-02-27T06:32:47.721Z,80.50
2019-02-27T06:35:16.572Z,66.70
2019-02-27T06:37:45.338Z,60.83
2019-02-27T06:40:18.199Z,58.00
2019-02-27T06:42:47.108Z,60.50
2019-02-27T06:45:17.161Z,60.70
2019-02-27T06:47:45.980Z,62.00
2019-02-27T06:50:17.687Z,56.60
2019-02-27T06:52:46.353Z,63.73
2019-02-27T06:55:15.586Z,61.10
2019-02-27T06:57:44.265Z,60.30
2019-02-27T07:00:21.565Z,65.47
2019-02-27T07:02:50.320Z,59.07
2019-02-27T07:05:19.007Z,55.63
2019-02-27T07:07:47.815Z,66.90
2019-02-27T07:10:19.926Z,73.93
2019-02-27T07:12:47.859Z,63.07
2019-02-27T07:15:18.921Z,72.90
2019-02-27T07:17:47.639Z,60.83
2019-02-27T07:20:16.840Z,65.00
2019-02-27T07:22:46.519Z,80.23
2019-02-27T07:25:16.859Z,71.87
2019-02-27T07:27:45.608Z,67.13
2019-02-27T07:30:16.603Z,76.33
2019-02-27T07:32:45.330Z,71.03
2019-02-27T07:35:15.100Z,64.00
2019-02-27T07:37:48.177Z,66.13
2019-02-27T07:40:20.920Z,57.27
2019-02-27T07:42:49.723Z,58.87
2019-02-27T07:45:22.557Z,65.20
2019-02-27T07:47:51.148Z,51.20
2019-02-27T07:50:22.817Z,44.57
2019-02-27T07:52:52.241Z,47.83
2019-02-27T07:55:22.897Z,40.53
2019-02-27T07:57:51.875Z,44.17
2019-02-27T08:00:22.449Z,42.13
2019-02-27T08:02:51.459Z,34.10
2019-02-27T08:05:20.004Z,33.30
2019-02-27T08:07:49.764Z,38.67
2019-02-27T08:10:20.496Z,26.33
2019-02-27T08:12:49.286Z,27.60
2019-02-27T08:15:19.312Z,29.27
2019-02-27T08:17:48.087Z,30.47
2019-02-27T08:20:20.194Z,22.73
2019-02-27T08:22:49.300Z,27.90
2019-02-27T08:25:20.982Z,27.83
2019-02-27T08:27:49.603Z,26.63
2019-02-27T08:30:23.419Z,25.57
2019-02-27T08:32:52.163Z,22.63
2019-02-27T08:35:20.798Z,27.53
2019-02-27T08:37:49.631Z,23.33
2019-02-27T08:40:18.403Z,27.17
2019-02-27T08:42:47.145Z,29.53
2019-02-27T08:45:20.672Z,31.87
2019-02-27T08:47:49.794Z,34.10
2019-02-27T08:50:21.450Z,36.30
2019-02-27T08:52:51.527Z,42.83
2019-02-27T08:55:22.443Z,35.47
2019-02-27T08:57:55.573Z,38.90
2019-02-27T09:00:23.919Z,35.73
2019-02-27T09:02:55.621Z,38.17
2019-02-27T09:05:24.638Z,42.57
2019-02-27T09:07:53.277Z,43.27
2019-02-27T09:10:26.920Z,41.60
2019-02-27T09:13:04.980Z,44.00
2019-02-27T09:15:26.488Z,43.87
2019-02-27T09:17:55.178Z,45.73
2019-02-27T09:20:23.899Z,54.67
2019-02-27T09:22:52.539Z,46.80
2019-02-27T09:25:27.409Z,54.10
2019-02-27T09:27:56.064Z,48.83
2019-02-27T09:30:28.784Z,45.70
2019-02-27T09:32:56.317Z,49.13
2019-02-27T09:35:25.023Z,45.57
2019-02-27T09:37:53.802Z,48.33
2019-02-27T09:40:24.093Z,55.80
2019-02-27T09:42:53.663Z,50.10
2019-02-27T09:45:27.407Z,53.90
2019-02-27T09:47:59.628Z,55.73
2019-02-27T09:50:40.716Z,51.13
2019-02-27T09:53:09.397Z,52.57
2019-02-27T09:55:38.085Z,42.43
2019-02-27T09:58:10.992Z,49.07
2019-02-27T10:00:43.663Z,50.73
2019-02-27T10:03:12.377Z,53.67
2019-02-27T10:05:48.428Z,49.00
2019-02-27T10:08:18.620Z,51.33
2019-02-27T10:10:47.262Z,51.97
2019-02-27T10:13:15.894Z,58.70
2019-02-27T10:15:44.570Z,54.20
2019-02-27T10:18:15.866Z,52.87
2019-02-27T10:20:43.630Z,58.77
2019-02-27T10:23:12.351Z,52.80
2019-02-27T10:25:43.617Z,52.30
2019-02-27T10:28:12.421Z,55.70
2019-02-27T10:30:41.073Z,50.53
2019-02-27T10:33:11.221Z,57.93
2019-02-27T10:35:40.130Z,55.93
2019-02-27T10:38:08.780Z,60.07
2019-02-27T10:40:37.489Z,56.50
2019-02-27T10:43:06.288Z,60.33
2019-02-27T10:45:35.059Z,57.00
2019-02-27T10:48:03.750Z,59.30
2019-02-27T10:50:35.557Z,65.37
2019-02-27T10:53:02.962Z,58.13
2019-02-27T10:55:31.564Z,57.47
2019-02-27T10:58:00.322Z,56.97
2019-02-27T11:00:33.057Z,54.20
2019-02-27T11:03:02.072Z,46.77
2019-02-27T11:05:32.969Z,51.73
2019-02-27T11:08:01.589Z,53.43
2019-02-27T11:10:30.339Z,56.00
2019-02-27T11:12:59.164Z,53.60
2019-02-27T11:15:27.858Z,50.80
2019-02-27T11:17:56.591Z,51.97
2019-02-27T11:20:25.286Z,56.57
2019-02-27T11:22:54.019Z,55.73
2019-02-27T11:25:25.695Z,52.40
2019-02-27T11:27:54.383Z,46.90
2019-02-27T11:30:36.817Z,54.40
2019-02-27T11:33:05.740Z,51.07
2019-02-27T11:35:35.530Z,54.13
2019-02-27T11:38:04.640Z,52.33
2019-02-27T11:40:33.380Z,54.43
2019-02-27T11:43:06.718Z,54.43
2019-02-27T11:45:32.462Z,49.77
2019-02-27T11:48:01.095Z,59.23
2019-02-27T11:50:29.791Z,57.97
2019-02-27T11:53:01.800Z,47.87
2019-02-27T11:55:29.046Z,49.03
2019-02-27T11:57:57.771Z,54.60
2019-02-27T12:00:31.586Z,53.93
2019-02-27T12:03:00.390Z,52.00
2019-02-27T12:05:33.690Z,54.97
2019-02-27T12:07:59.472Z,59.40
2019-02-27T12:10:31.010Z,59.17
2019-02-27T12:13:01.309Z,55.13
2019-02-27T12:15:30.503Z,55.40
2019-02-27T12:18:00.775Z,56.50
2019-02-27T12:20:29.683Z,58.87
2019-02-27T12:22:58.392Z,55.07
2019-02-27T12:25:29.841Z,55.43
2019-02-27T12:27:57.477Z,50.20
2019-02-27T12:30:30.821Z,65.50
2019-02-27T12:32:59.550Z,54.47
2019-02-27T12:35:30.741Z,50.80
2019-02-27T12:37:59.496Z,58.13
2019-02-27T12:40:28.222Z,57.77
2019-02-27T12:42:56.914Z,57.10
2019-02-27T12:45:29.521Z,55.37
2019-02-27T12:47:57.607Z,56.23
2019-02-27T12:50:30.847Z,50.80
2019-02-27T12:52:57.894Z,53.67
2019-02-27T12:55:27.771Z,53.33
2019-02-27T12:57:56.465Z,55.87
2019-02-27T13:00:32.842Z,56.67
2019-02-27T13:03:01.454Z,56.20
2019-02-27T13:05:30.179Z,52.50
2019-02-27T13:07:58.910Z,56.53
2019-02-27T13:10:33.105Z,57.37
2019-02-27T13:12:58.431Z,56.20
2019-02-27T13:15:29.189Z,52.83
2019-02-27T13:17:58.207Z,50.47
2019-02-27T13:20:35.093Z,51.23
2019-02-27T13:23:05.086Z,52.37
2019-02-27T13:25:35.745Z,51.00
2019-02-27T13:28:04.467Z,58.37
2019-02-27T13:30:33.123Z,59.93
2019-02-27T13:33:02.233Z,56.67
2019-02-27T13:35:31.041Z,50.23
2019-02-27T13:37:59.861Z,55.33
2019-02-27T13:40:35.148Z,55.83
2019-02-27T13:43:01.147Z,55.63
2019-02-27T13:45:31.661Z,58.80
2019-02-27T13:48:04.808Z,61.27
2019-02-27T13:50:30.922Z,58.63
2019-02-27T13:52:59.636Z,52.40
2019-02-27T13:55:28.393Z,54.23
2019-02-27T13:57:59.212Z,63.10
2019-02-27T14:00:31.503Z,69.07
2019-02-27T14:03:00.221Z,63.17
2019-02-27T14:05:29.601Z,58.83
2019-02-27T14:07:58.819Z,59.63
2019-02-27T14:10:29.744Z,60.27
2019-02-27T14:12:58.469Z,59.70
2019-02-27T14:15:28.175Z,57.33
2019-02-27T14:17:57.004Z,60.83
2019-02-27T14:20:27.097Z,62.10
2019-02-27T14:22:56.077Z,67.47
2019-02-27T14:25:33.263Z,65.73
2019-02-27T14:28:04.114Z,71.97
2019-02-27T14:30:50.613Z,67.20
2019-02-27T14:33:19.553Z,68.27
2019-02-27T14:35:49.197Z,73.43
2019-02-27T14:38:17.857Z,67.27
2019-02-27T14:40:46.562Z,71.93
2019-02-27T14:43:15.293Z,67.80
2019-02-27T14:45:43.850Z,64.63
2019-02-27T14:48:12.546Z,69.07
2019-02-27T14:50:41.313Z,62.73
2019-02-27T14:53:10.019Z,70.47
2019-02-27T14:55:38.719Z,69.30
2019-02-27T14:58:07.379Z,69.63
2019-02-27T15:00:40.864Z,65.37
2019-02-27T15:03:07.921Z,68.17
2019-02-27T15:05:37.267Z,69.93
2019-02-27T15:08:07.046Z,73.37
2019-02-27T15:10:40.079Z,74.77
2019-02-27T15:13:06.041Z,75.37
2019-02-27T15:15:34.750Z,69.57
2019-02-27T15:18:05.680Z,73.80
2019-02-27T15:20:34.708Z,76.97
2019-02-27T15:23:03.576Z,72.50
2019-02-27T15:25:32.216Z,66.20
2019-02-27T15:28:00.840Z,72.77
2019-02-27T15:30:33.563Z,66.50
2019-02-27T15:33:04.901Z,70.17
2019-02-27T15:35:32.637Z,67.33
2019-02-27T15:38:01.440Z,68.97
2019-02-27T15:40:30.871Z,75.87
2019-02-27T15:43:01.170Z,72.83
2019-02-27T15:45:29.911Z,79.50
2019-02-27T15:47:58.684Z,71.00
2019-02-27T15:50:29.580Z,77.83
2019-02-27T15:52:58.286Z,74.47
2019-02-27T15:55:27.002Z,74.43
2019-02-27T15:57:55.774Z,70.73
2019-02-27T16:00:28.237Z,67.30
2019-02-27T16:02:56.922Z,70.57
2019-02-27T16:05:30.097Z,79.03
2019-02-27T16:07:55.940Z,73.23
2019-02-27T16:10:30.584Z,69.13
2019-02-27T16:13:00.987Z,78.80
2019-02-27T16:15:29.557Z,62.13
2019-02-27T16:17:58.194Z,72.23
2019-02-27T16:20:28.059Z,71.73
2019-02-27T16:22:56.778Z,72.80
2019-02-27T16:25:26.473Z,70.07
2019-02-27T16:27:56.611Z,62.47
2019-02-27T16:30:37.063Z,68.20
2019-02-27T16:33:07.007Z,63.43
2019-02-27T16:35:41.556Z,59.70
2019-02-27T16:38:06.194Z,65.20
2019-02-27T16:40:34.736Z,69.63
2019-02-27T16:43:03.373Z,66.03
2019-02-27T16:45:40.811Z,71.73
2019-02-27T16:48:11.187Z,74.20
2019-02-27T16:50:39.696Z,79.40
2019-02-27T16:53:08.394Z,76.93
2019-02-27T16:55:38.103Z,75.40
2019-02-27T16:58:07.432Z,79.27
2019-02-27T17:00:38.128Z,76.53
2019-02-27T17:03:06.854Z,90.87
2019-02-27T17:05:35.514Z,78.17
2019-02-27T17:08:04.207Z,81.87
2019-02-27T17:10:35.161Z,90.93
2019-02-27T17:13:03.930Z,60.47
2019-02-27T17:15:35.757Z,68.27
2019-02-27T17:18:03.043Z,70.70
2019-02-27T17:20:31.775Z,62.03
2019-02-27T17:23:00.485Z,58.27
2019-02-27T17:25:30.223Z,69.03
2019-02-27T17:27:59.253Z,56.90
2019-02-27T17:30:36.659Z,61.03
2019-02-27T17:33:04.255Z,54.37
2019-02-27T17:35:36.473Z,58.70
2019-02-27T17:38:05.195Z,56.77
2019-02-27T17:40:36.916Z,55.90
2019-02-27T17:43:06.507Z,54.27
2019-02-27T17:45:34.502Z,52.60
2019-02-27T17:48:09.386Z,51.37
2019-02-27T17:50:38.153Z,54.00
2019-02-27T17:53:06.814Z,58.60
2019-02-27T17:55:38.130Z,54.63
2019-02-27T17:58:06.206Z,54.23
2019-02-27T18:00:49.985Z,57.17
2019-02-27T18:03:17.688Z,53.13
2019-02-27T18:05:47.978Z,54.53
2019-02-27T18:08:17.183Z,59.03
2019-02-27T18:10:46.175Z,51.23
2019-02-27T18:13:15.079Z,48.97
2019-02-27T18:15:44.201Z,58.40
2019-02-27T18:18:12.995Z,59.37
2019-02-27T18:20:41.569Z,54.43
2019-02-27T18:23:13.477Z,55.97
2019-02-27T18:25:45.426Z,54.13
2019-02-27T18:28:14.128Z,61.30
2019-02-27T18:30:42.834Z,58.10
2019-02-27T18:33:14.268Z,61.97
2019-02-27T18:35:41.975Z,62.13
2019-02-27T18:38:11.039Z,60.60
2019-02-27T18:40:42.748Z,59.07
2019-02-27T18:43:09.949Z,54.50
2019-02-27T18:45:39.096Z,55.60
2019-02-27T18:48:10.095Z,59.20
2019-02-27T18:50:38.039Z,60.30
2019-02-27T18:53:07.553Z,56.73
2019-02-27T18:55:36.313Z,53.33
2019-02-27T18:58:05.235Z,53.63
2019-02-27T19:00:36.252Z,55.70
2019-02-27T19:03:07.737Z,57.20
2019-02-27T19:05:38.201Z,59.13
2019-02-27T19:08:07.112Z,60.47
2019-02-27T19:10:41.305Z,51.43
2019-02-27T19:13:06.320Z,55.67
2019-02-27T19:15:35.213Z,60.27
2019-02-27T19:18:06.538Z,48.63
2019-02-27T19:20:45.917Z,51.50
2019-02-27T19:23:17.724Z,53.87
2019-02-27T19:25:45.099Z,56.47
2019-02-27T19:28:13.796Z,61.90
2019-02-27T19:30:43.989Z,60.37
2019-02-27T19:33:12.792Z,62.27
2019-02-27T19:35:41.754Z,57.20
2019-02-27T19:38:12.897Z,63.30
2019-02-27T19:40:40.908Z,61.63
2019-02-27T19:43:09.665Z,63.27
2019-02-27T19:45:38.378Z,59.70
2019-02-27T19:48:07.108Z,63.07
2019-02-27T19:50:35.831Z,61.73
2019-02-27T19:53:06.918Z,64.17
2019-02-27T19:55:34.916Z,55.83
2019-02-27T19:58:03.659Z,61.87
2019-02-27T20:00:34.892Z,58.40
2019-02-27T20:03:04.418Z,58.83
2019-02-27T20:05:33.166Z,57.40
2019-02-27T20:08:02.571Z,54.53
2019-02-27T20:10:33.205Z,56.60
2019-02-27T20:13:01.767Z,63.13
2019-02-27T20:15:30.462Z,61.80
2019-02-27T20:17:59.387Z,68.77
2019-02-27T20:20:29.957Z,53.43
2019-02-27T20:22:58.691Z,56.00
2019-02-27T20:25:29.849Z,60.63
2019-02-27T20:28:07.885Z,55.00
2019-02-27T20:30:38.360Z,55.53
2019-02-27T20:33:07.028Z,53.67
2019-02-27T20:35:35.704Z,57.97
2019-02-27T20:38:04.406Z,61.80
2019-02-27T20:40:34.175Z,57.73
2019-02-27T20:43:03.486Z,57.93
2019-02-27T20:45:32.198Z,53.53
2019-02-27T20:48:01.947Z,59.53
2019-02-27T20:50:39.072Z,55.93
2019-02-27T20:53:09.535Z,54.80
2019-02-27T20:55:38.181Z,58.17
2019-02-27T20:58:06.932Z,52.57
2019-02-27T21:00:36.538Z,60.77
2019-02-27T21:03:06.176Z,49.00
2019-02-27T21:05:34.900Z,61.40
2019-02-27T21:08:03.644Z,61.90
2019-02-27T21:10:33.324Z,59.20
2019-02-27T21:13:02.071Z,66.93
2019-02-27T21:15:32.536Z,59.73
2019-02-27T21:18:01.211Z,52.80
2019-02-27T21:20:29.858Z,58.57
2019-02-27T21:22:59.877Z,56.50
2019-02-27T21:25:29.069Z,61.50
2019-02-27T21:27:57.696Z,59.33
2019-02-27T21:30:26.727Z,52.97
2019-02-27T21:32:55.369Z,50.50
2019-02-27T21:35:28.845Z,50.73
2019-02-27T21:37:54.753Z,50.50
2019-02-27T21:40:23.478Z,52.23
2019-02-27T21:42:52.252Z,54.57
2019-02-27T21:45:22.235Z,41.77
2019-02-27T21:47:51.896Z,46.83
2019-02-27T21:50:24.585Z,46.23
2019-02-27T21:52:54.380Z,57.17
2019-02-27T21:55:23.288Z,52.90
2019-02-27T21:57:52.136Z,53.63
2019-02-27T22:00:29.279Z,44.87
2019-02-27T22:03:03.712Z,56.80
2019-02-27T22:05:29.200Z,51.83
2019-02-27T22:07:57.872Z,49.67
2019-02-27T22:10:26.625Z,50.93
2019-02-27T22:12:55.351Z,55.23
2019-02-27T22:15:30.965Z,46.33
2019-02-27T22:17:59.690Z,46.57
2019-02-27T22:20:28.410Z,50.13
2019-02-27T22:22:57.139Z,55.50
2019-02-27T22:25:30.245Z,47.23
2019-02-27T22:27:58.383Z,52.83
2019-02-27T22:30:26.482Z,49.83
2019-02-27T22:32:55.147Z,54.57
2019-02-27T22:35:23.869Z,52.37
2019-02-27T22:37:52.935Z,51.47
2019-02-27T22:40:26.901Z,44.23
2019-02-27T22:42:55.814Z,45.53
2019-02-27T22:45:24.506Z,45.00
2019-02-27T22:47:54.036Z,42.20
2019-02-27T22:50:23.286Z,40.57
2019-02-27T22:52:54.750Z,38.77
2019-02-27T22:55:23.761Z,38.63
2019-02-27T22:57:54.733Z,44.80
2019-02-27T23:00:51.067Z,47.00
2019-02-27T23:03:27.709Z,40.17
2019-02-27T23:05:56.458Z,44.47
2019-02-27T23:08:25.377Z,42.37
2019-02-27T23:10:54.078Z,45.33
2019-02-27T23:13:22.839Z,42.17
2019-02-27T23:15:52.087Z,42.70
2019-02-27T23:18:20.735Z,51.43
2019-02-27T23:20:52.493Z,42.57
2019-02-27T23:23:24.212Z,41.37
2019-02-27T23:25:54.391Z,39.37
2019-02-27T23:28:23.011Z,50.30
2019-02-27T23:30:51.678Z,44.67
2019-02-27T23:33:20.593Z,39.40
2019-02-27T23:35:50.259Z,45.43
2019-02-27T23:38:19.578Z,44.73
2019-02-27T23:40:50.004Z,38.33
2019-02-27T23:43:19.783Z,40.87
2019-02-27T23:45:48.650Z,46.17
2019-02-27T23:48:17.378Z,41.03
2019-02-27T23:50:46.076Z,41.90
2019-02-27T23:53:15.240Z,46.10
2019-02-27T23:55:48.050Z,45.23
2019-02-27T23:58:16.652Z,44.27
